sensor_id;sensor_type;location;lat;lon;timestamp;pressure;altitude;pressure_sealevel;temperature;humidity
67109;BME280;54027;50.786;7.058;2023-04-08T00:02:18;101678.66;;;9.20;92.04
67109;BME280;54027;50.786;7.058;2023-04-08T00:04:43;101685.56;;;9.20;92.32
67109;BME280;54027;50.786;7.058;2023-04-08T00:07:09;101685.56;;;9.20;92.65
67109;BME280;54027;50.786;7.058;2023-04-08T00:09:34;101687.28;;;9.21;92.57
67109;BME280;54027;50.786;7.058;2023-04-08T00:12:00;101687.28;;;9.21;92.37
67109;BME280;54027;50.786;7.058;2023-04-08T00:14:26;101692.44;;;9.21;92.51
67109;BME280;54027;50.786;7.058;2023-04-08T00:16:51;101689.84;;;9.21;92.73
67109;BME280;54027;50.786;7.058;2023-04-08T00:19:16;101687.28;;;9.21;92.52
67109;BME280;54027;50.786;7.058;2023-04-08T00:21:42;101687.28;;;9.21;93.12
67109;BME280;54027;50.786;7.058;2023-04-08T00:24:07;101688.16;;;9.21;93.38
67109;BME280;54027;50.786;7.058;2023-04-08T00:26:33;101684.69;;;9.19;92.95
67109;BME280;54027;50.786;7.058;2023-04-08T00:28:58;101686.41;;;9.20;92.87
67109;BME280;54027;50.786;7.058;2023-04-08T00:31:23;101686.41;;;9.20;92.66
67109;BME280;54027;50.786;7.058;2023-04-08T00:33:49;101691.53;;;9.17;92.01
67109;BME280;54027;50.786;7.058;2023-04-08T00:36:15;101694.97;;;9.16;92.52
67109;BME280;54027;50.786;7.058;2023-04-08T00:38:40;101683.78;;;9.16;92.40
67109;BME280;54027;50.786;7.058;2023-04-08T00:41:05;101688.91;;;9.14;92.54
67109;BME280;54027;50.786;7.058;2023-04-08T00:43:31;101690.66;;;9.13;92.07
67109;BME280;54027;50.786;7.058;2023-04-08T00:45:56;101692.34;;;9.13;92.82
67109;BME280;54027;50.786;7.058;2023-04-08T00:48:21;101693.19;;;9.12;93.12
67109;BME280;54027;50.786;7.058;2023-04-08T00:50:47;101695.78;;;9.12;92.18
67109;BME280;54027;50.786;7.058;2023-04-08T00:53:16;101690.59;;;9.10;92.08
67109;BME280;54027;50.786;7.058;2023-04-08T00:55:42;101692.31;;;9.10;92.03
67109;BME280;54027;50.786;7.058;2023-04-08T00:58:07;101696.59;;;9.09;92.59
67109;BME280;54027;50.786;7.058;2023-04-08T01:00:35;101698.34;;;9.10;92.14
67109;BME280;54027;50.786;7.058;2023-04-08T01:03:27;101694.03;;;9.09;93.14
67109;BME280;54027;50.786;7.058;2023-04-08T01:08:29;101698.34;;;9.10;92.64
67109;BME280;54027;50.786;7.058;2023-04-08T01:11:00;101690.56;;;9.09;92.55
67109;BME280;54027;50.786;7.058;2023-04-08T01:13:28;101697.44;;;9.08;92.93
67109;BME280;54027;50.786;7.058;2023-04-08T01:15:55;101694.91;;;9.10;92.71
67109;BME280;54027;50.786;7.058;2023-04-08T01:18:20;101703.50;;;9.10;92.90
67109;BME280;54027;50.786;7.058;2023-04-08T01:20:47;101698.31;;;9.09;92.97
67109;BME280;54027;50.786;7.058;2023-04-08T01:26:20;101693.16;;;9.07;93.30
67109;BME280;54027;50.786;7.058;2023-04-08T01:28:48;101698.31;;;9.09;93.52
67109;BME280;54027;50.786;7.058;2023-04-08T01:31:15;101698.31;;;9.09;92.74
67109;BME280;54027;50.786;7.058;2023-04-08T01:33:42;101696.59;;;9.09;92.98
67109;BME280;54027;50.786;7.058;2023-04-08T01:36:09;101697.47;;;9.10;92.82
67109;BME280;54027;50.786;7.058;2023-04-08T01:38:37;101697.47;;;9.10;92.82
67109;BME280;54027;50.786;7.058;2023-04-08T01:41:04;101700.94;;;9.10;93.38
67109;BME280;54027;50.786;7.058;2023-04-08T01:43:32;101699.19;;;9.11;93.30
67109;BME280;54027;50.786;7.058;2023-04-08T01:45:58;101706.91;;;9.11;93.11
67109;BME280;54027;50.786;7.058;2023-04-08T01:48:25;101697.47;;;9.11;93.09
67109;BME280;54027;50.786;7.058;2023-04-08T01:50:52;101706.09;;;9.12;93.29
67109;BME280;54027;50.786;7.058;2023-04-08T01:53:18;101698.34;;;9.12;93.48
67109;BME280;54027;50.786;7.058;2023-04-08T01:55:44;101702.63;;;9.11;93.62
67109;BME280;54027;50.786;7.058;2023-04-08T01:58:14;101702.63;;;9.11;94.07
67109;BME280;54027;50.786;7.058;2023-04-08T02:00:41;101698.31;;;9.09;94.09
67109;BME280;54027;50.786;7.058;2023-04-08T02:03:09;101702.59;;;9.08;94.35
67109;BME280;54027;50.786;7.058;2023-04-08T02:05:36;101702.56;;;9.05;93.92
67109;BME280;54027;50.786;7.058;2023-04-08T02:08:01;101708.53;;;9.03;94.30
67109;BME280;54027;50.786;7.058;2023-04-08T02:10:26;101710.22;;;8.98;94.60
67109;BME280;54027;50.786;7.058;2023-04-08T02:12:52;101710.13;;;8.93;95.76
67109;BME280;54027;50.786;7.058;2023-04-08T02:15:19;101707.47;;;8.87;95.42
67109;BME280;54027;50.786;7.058;2023-04-08T02:17:49;101718.59;;;8.85;96.06
67109;BME280;54027;50.786;7.058;2023-04-08T02:20:18;101713.41;;;8.80;96.25
67109;BME280;54027;50.786;7.058;2023-04-08T02:22:56;101715.09;;;8.78;96.83
67109;BME280;54027;50.786;7.058;2023-04-08T02:25:24;101713.31;;;8.76;96.99
67109;BME280;54027;50.786;7.058;2023-04-08T02:27:53;101716.78;;;8.75;97.78
67109;BME280;54027;50.786;7.058;2023-04-08T02:30:20;101716.78;;;8.75;97.86
67109;BME280;54027;50.786;7.058;2023-04-08T02:32:46;101709.88;;;8.74;98.45
67109;BME280;54027;50.786;7.058;2023-04-08T02:35:14;101711.56;;;8.72;98.57
67109;BME280;54027;50.786;7.058;2023-04-08T02:37:40;101716.69;;;8.69;98.97
67109;BME280;54027;50.786;7.058;2023-04-08T02:40:40;101711.50;;;8.67;99.79
67109;BME280;54027;50.786;7.058;2023-04-08T02:43:05;101719.22;;;8.66;99.85
67109;BME280;54027;50.786;7.058;2023-04-08T02:45:35;101719.19;;;8.64;100.00
67109;BME280;54027;50.786;7.058;2023-04-08T02:48:02;101719.16;;;8.63;100.00
67109;BME280;54027;50.786;7.058;2023-04-08T02:50:30;101709.69;;;8.62;100.00
67109;BME280;54027;50.786;7.058;2023-04-08T02:52:55;101713.97;;;8.60;100.00
67109;BME280;54027;50.786;7.058;2023-04-08T02:55:21;101719.09;;;8.58;100.00
67109;BME280;54027;50.786;7.058;2023-04-08T02:57:47;101715.63;;;8.57;100.00
67109;BME280;54027;50.786;7.058;2023-04-08T03:00:13;101712.19;;;8.55;100.00
67109;BME280;54027;50.786;7.058;2023-04-08T03:02:38;101716.47;;;8.55;100.00
67109;BME280;54027;50.786;7.058;2023-04-08T03:05:04;101716.50;;;8.56;100.00
67109;BME280;54027;50.786;7.058;2023-04-08T03:07:30;101714.75;;;8.55;100.00
67109;BME280;54027;50.786;7.058;2023-04-08T03:09:56;101719.91;;;8.54;100.00
67109;BME280;54027;50.786;7.058;2023-04-08T03:12:22;101714.72;;;8.52;100.00
67109;BME280;54027;50.786;7.058;2023-04-08T03:14:48;101719.84;;;8.51;100.00
67109;BME280;54027;50.786;7.058;2023-04-08T03:17:14;101719.81;;;8.49;100.00
67109;BME280;54027;50.786;7.058;2023-04-08T03:19:39;101722.38;;;8.48;100.00
67109;BME280;54027;50.786;7.058;2023-04-08T03:22:05;101724.06;;;8.46;100.00
67109;BME280;54027;50.786;7.058;2023-04-08T03:24:30;101724.97;;;8.48;100.00
67109;BME280;54027;50.786;7.058;2023-04-08T03:26:55;101728.41;;;8.48;100.00
67109;BME280;54027;50.786;7.058;2023-04-08T03:29:21;101727.53;;;8.49;100.00
67109;BME280;54027;50.786;7.058;2023-04-08T03:31:46;101731.88;;;8.50;100.00
67109;BME280;54027;50.786;7.058;2023-04-08T03:34:12;101728.41;;;8.50;100.00
67109;BME280;54027;50.786;7.058;2023-04-08T03:36:37;101730.06;;;8.46;100.00
67109;BME280;54027;50.786;7.058;2023-04-08T03:39:02;101736.09;;;8.45;100.00
67109;BME280;54027;50.786;7.058;2023-04-08T03:41:28;101732.63;;;8.45;100.00
67109;BME280;54027;50.786;7.058;2023-04-08T03:43:54;101730.06;;;8.45;100.00
67109;BME280;54027;50.786;7.058;2023-04-08T03:46:20;101731.78;;;8.44;100.00
67109;BME280;54027;50.786;7.058;2023-04-08T03:48:46;101726.56;;;8.43;100.00
67109;BME280;54027;50.786;7.058;2023-04-08T03:51:12;101730.88;;;8.42;100.00
67109;BME280;54027;50.786;7.058;2023-04-08T03:53:37;101731.72;;;8.43;100.00
67109;BME280;54027;50.786;7.058;2023-04-08T03:56:02;101730.91;;;8.44;100.00
67109;BME280;54027;50.786;7.058;2023-04-08T03:58:28;101735.19;;;8.43;100.00
67109;BME280;54027;50.786;7.058;2023-04-08T04:00:54;101730.88;;;8.42;100.00
67109;BME280;54027;50.786;7.058;2023-04-08T04:03:19;101739.44;;;8.41;100.00
67109;BME280;54027;50.786;7.058;2023-04-08T04:05:45;101729.16;;;8.43;100.00
67109;BME280;54027;50.786;7.058;2023-04-08T04:08:10;101735.19;;;8.43;100.00
67109;BME280;54027;50.786;7.058;2023-04-08T04:10:36;101738.63;;;8.42;100.00
67109;BME280;54027;50.786;7.058;2023-04-08T04:13:01;101736.88;;;8.43;100.00
67109;BME280;54027;50.786;7.058;2023-04-08T04:15:27;101741.19;;;8.42;100.00
67109;BME280;54027;50.786;7.058;2023-04-08T04:17:52;101733.47;;;8.42;100.00
67109;BME280;54027;50.786;7.058;2023-04-08T04:20:17;101733.44;;;8.41;100.00
67109;BME280;54027;50.786;7.058;2023-04-08T04:22:43;101740.31;;;8.42;100.00
67109;BME280;54027;50.786;7.058;2023-04-08T04:25:09;101728.31;;;8.42;100.00
67109;BME280;54027;50.786;7.058;2023-04-08T04:27:34;101736.06;;;8.44;100.00
67109;BME280;54027;50.786;7.058;2023-04-08T04:30:01;101740.31;;;8.43;100.00
67109;BME280;54027;50.786;7.058;2023-04-08T04:32:26;101747.22;;;8.44;100.00
67109;BME280;54027;50.786;7.058;2023-04-08T04:34:52;101747.22;;;8.44;100.00
67109;BME280;54027;50.786;7.058;2023-04-08T04:37:17;101752.38;;;8.46;100.00
67109;BME280;54027;50.786;7.058;2023-04-08T04:39:43;101753.25;;;8.45;100.00
67109;BME280;54027;50.786;7.058;2023-04-08T04:42:08;101745.47;;;8.43;100.00
67109;BME280;54027;50.786;7.058;2023-04-08T04:44:33;101756.66;;;8.44;100.00
67109;BME280;54027;50.786;7.058;2023-04-08T04:46:59;101755.81;;;8.45;100.00
67109;BME280;54027;50.786;7.058;2023-04-08T04:49:24;101755.84;;;8.46;100.00
67109;BME280;54027;50.786;7.058;2023-04-08T04:51:50;101759.28;;;8.45;100.00
67109;BME280;54027;50.786;7.058;2023-04-08T04:54:15;101759.28;;;8.47;100.00
67109;BME280;54027;50.786;7.058;2023-04-08T04:56:40;101759.28;;;8.47;100.00
67109;BME280;54027;50.786;7.058;2023-04-08T04:59:06;101761.03;;;8.48;100.00
67109;BME280;54027;50.786;7.058;2023-04-08T05:01:32;101758.44;;;8.48;100.00
67109;BME280;54027;50.786;7.058;2023-04-08T05:03:58;101759.34;;;8.50;100.00
67109;BME280;54027;50.786;7.058;2023-04-08T05:06:23;101759.38;;;8.53;100.00
67109;BME280;54027;50.786;7.058;2023-04-08T05:08:49;101775.72;;;8.55;100.00
67109;BME280;54027;50.786;7.058;2023-04-08T05:11:16;101772.28;;;8.54;100.00
67109;BME280;54027;50.786;7.058;2023-04-08T05:13:42;101765.47;;;8.56;100.00
67109;BME280;54027;50.786;7.058;2023-04-08T05:16:08;101774.06;;;8.58;100.00
67109;BME280;54027;50.786;7.058;2023-04-08T05:18:33;101771.53;;;8.62;100.00
67109;BME280;54027;50.786;7.058;2023-04-08T05:20:59;101775.03;;;8.65;100.00
67109;BME280;54027;50.786;7.058;2023-04-08T05:23:24;101768.19;;;8.67;100.00
67109;BME280;54027;50.786;7.058;2023-04-08T05:25:49;101768.22;;;8.70;100.00
67109;BME280;54027;50.786;7.058;2023-04-08T05:28:15;101771.72;;;8.72;100.00
67109;BME280;54027;50.786;7.058;2023-04-08T05:30:40;101770.00;;;8.73;100.00
67109;BME280;54027;50.786;7.058;2023-04-08T05:33:06;101774.34;;;8.77;100.00
67109;BME280;54027;50.786;7.058;2023-04-08T05:35:31;101772.66;;;8.77;100.00
67109;BME280;54027;50.786;7.058;2023-04-08T05:37:57;101771.81;;;8.80;100.00
67109;BME280;54027;50.786;7.058;2023-04-08T05:40:22;101772.75;;;8.83;100.00
67109;BME280;54027;50.786;7.058;2023-04-08T05:42:48;101777.94;;;8.86;100.00
67109;BME280;54027;50.786;7.058;2023-04-08T05:45:13;101779.59;;;8.84;100.00
67109;BME280;54027;50.786;7.058;2023-04-08T05:47:38;101779.59;;;8.84;100.00
67109;BME280;54027;50.786;7.058;2023-04-08T05:50:04;101779.66;;;8.87;100.00
67109;BME280;54027;50.786;7.058;2023-04-08T05:52:30;101778.81;;;8.87;100.00
67109;BME280;54027;50.786;7.058;2023-04-08T05:54:55;101791.72;;;8.88;100.00
67109;BME280;54027;50.786;7.058;2023-04-08T05:57:21;101788.31;;;8.91;100.00
67109;BME280;54027;50.786;7.058;2023-04-08T05:59:46;101795.22;;;8.92;100.00
67109;BME280;54027;50.786;7.058;2023-04-08T06:02:11;101800.38;;;8.93;100.00
67109;BME280;54027;50.786;7.058;2023-04-08T06:04:36;101797.84;;;8.95;100.00
67109;BME280;54027;50.786;7.058;2023-04-08T06:07:02;101809.03;;;8.97;100.00
67109;BME280;54027;50.786;7.058;2023-04-08T06:09:28;101808.19;;;8.99;100.00
67109;BME280;54027;50.786;7.058;2023-04-08T06:11:54;101812.47;;;8.97;100.00
67109;BME280;54027;50.786;7.058;2023-04-08T06:14:20;101812.47;;;8.97;100.00
67109;BME280;54027;50.786;7.058;2023-04-08T06:16:46;101809.91;;;8.97;100.00
67109;BME280;54027;50.786;7.058;2023-04-08T06:19:11;101815.06;;;8.96;100.00
67109;BME280;54027;50.786;7.058;2023-04-08T06:21:36;101816.75;;;8.95;100.00
67109;BME280;54027;50.786;7.058;2023-04-08T06:24:02;101822.84;;;8.99;100.00
67109;BME280;54027;50.786;7.058;2023-04-08T06:26:27;101823.72;;;9.01;100.00
67109;BME280;54027;50.786;7.058;2023-04-08T06:28:53;101836.66;;;9.04;100.00
67109;BME280;54027;50.786;7.058;2023-04-08T06:31:18;101829.00;;;9.11;100.00
67109;BME280;54027;50.786;7.058;2023-04-08T06:33:43;101833.44;;;9.19;100.00
67109;BME280;54027;50.786;7.058;2023-04-08T06:36:09;101831.69;;;9.16;100.00
67109;BME280;54027;50.786;7.058;2023-04-08T06:38:35;101835.19;;;9.21;99.65
67109;BME280;54027;50.786;7.058;2023-04-08T06:41:04;101831.75;;;9.22;99.81
67109;BME280;54027;50.786;7.058;2023-04-08T06:43:30;101833.47;;;9.23;98.68
67109;BME280;54027;50.786;7.058;2023-04-08T06:45:55;101836.97;;;9.25;98.75
67109;BME280;54027;50.786;7.058;2023-04-08T06:48:22;101829.22;;;9.27;98.04
67109;BME280;54027;50.786;7.058;2023-04-08T06:50:48;101832.72;;;9.29;97.15
67109;BME280;54027;50.786;7.058;2023-04-08T06:53:13;101838.75;;;9.31;97.46
67109;BME280;54027;50.786;7.058;2023-04-08T06:55:39;101837.19;;;9.40;96.84
67109;BME280;54027;50.786;7.058;2023-04-08T06:58:04;101843.22;;;9.42;95.82
67109;BME280;54027;50.786;7.058;2023-04-08T07:00:29;101841.56;;;9.46;94.56
67109;BME280;54027;50.786;7.058;2023-04-08T07:02:55;101838.28;;;9.57;95.12
67109;BME280;54027;50.786;7.058;2023-04-08T07:05:20;101840.13;;;9.66;94.29
67109;BME280;54027;50.786;7.058;2023-04-08T07:07:46;101841.09;;;9.76;93.35
67109;BME280;54027;50.786;7.058;2023-04-08T07:10:11;101845.38;;;9.74;92.58
67109;BME280;54027;50.786;7.058;2023-04-08T07:12:37;101852.19;;;9.68;92.48
67109;BME280;54027;50.786;7.058;2023-04-08T07:15:03;101853.03;;;9.67;92.20
67109;BME280;54027;50.786;7.058;2023-04-08T07:17:28;101852.28;;;9.73;92.56
67109;BME280;54027;50.786;7.058;2023-04-08T07:19:53;101863.47;;;9.77;91.81
67109;BME280;54027;50.786;7.058;2023-04-08T07:22:19;101863.56;;;9.83;92.54
67109;BME280;54027;50.786;7.058;2023-04-08T07:24:45;101861.91;;;9.88;91.96
67109;BME280;54027;50.786;7.058;2023-04-08T07:27:16;101861.13;;;9.93;91.42
67109;BME280;54027;50.786;7.058;2023-04-08T07:29:42;101860.25;;;9.94;89.82
67109;BME280;54027;50.786;7.058;2023-04-08T07:32:07;101861.25;;;10.05;89.84
67109;BME280;54027;50.786;7.058;2023-04-08T07:34:36;101864.72;;;10.07;89.62
67109;BME280;54027;50.786;7.058;2023-04-08T07:37:02;101870.84;;;10.17;90.03
67109;BME280;54027;50.786;7.058;2023-04-08T07:39:27;101874.31;;;10.17;88.32
67109;BME280;54027;50.786;7.058;2023-04-08T07:41:52;101877.06;;;10.33;89.67
67109;BME280;54027;50.786;7.058;2023-04-08T07:44:18;101879.53;;;10.23;87.30
67109;BME280;54027;50.786;7.058;2023-04-08T07:46:44;101882.97;;;10.24;88.82
67109;BME280;54027;50.786;7.058;2023-04-08T07:49:16;101889.84;;;10.22;86.32
67109;BME280;54027;50.786;7.058;2023-04-08T07:51:41;101892.56;;;10.36;87.29
67109;BME280;54027;50.786;7.058;2023-04-08T07:54:06;101883.25;;;10.51;86.42
67109;BME280;54027;50.786;7.058;2023-04-08T07:56:32;101885.97;;;10.63;85.43
67109;BME280;54027;50.786;7.058;2023-04-08T07:58:57;101892.13;;;10.77;86.55
67109;BME280;54027;50.786;7.058;2023-04-08T08:01:22;101893.91;;;10.85;83.96
67109;BME280;54027;50.786;7.058;2023-04-08T08:03:49;101888.78;;;10.91;83.76
67109;BME280;54027;50.786;7.058;2023-04-08T08:06:16;101891.44;;;11.00;84.15
67109;BME280;54027;50.786;7.058;2023-04-08T08:08:41;101893.84;;;10.74;82.68
67109;BME280;54027;50.786;7.058;2023-04-08T08:11:07;101900.50;;;10.52;85.05
67109;BME280;54027;50.786;7.058;2023-04-08T08:13:33;101907.28;;;10.43;86.03
67109;BME280;54027;50.786;7.058;2023-04-08T08:15:59;101905.44;;;10.30;85.53
67109;BME280;54027;50.786;7.058;2023-04-08T08:18:24;101908.06;;;10.34;85.08
67109;BME280;54027;50.786;7.058;2023-04-08T08:20:50;101912.56;;;10.52;86.91
67109;BME280;54027;50.786;7.058;2023-04-08T08:23:15;101913.41;;;10.51;84.24
67109;BME280;54027;50.786;7.058;2023-04-08T08:25:41;101908.31;;;10.60;83.56
67109;BME280;54027;50.786;7.058;2023-04-08T08:28:06;101905.88;;;10.73;83.93
67109;BME280;54027;50.786;7.058;2023-04-08T08:30:31;101905.91;;;10.78;82.80
67109;BME280;54027;50.786;7.058;2023-04-08T08:32:57;101909.44;;;10.85;82.34
67109;BME280;54027;50.786;7.058;2023-04-08T08:35:23;101910.25;;;10.79;81.30
67109;BME280;54027;50.786;7.058;2023-04-08T08:37:48;101917.22;;;10.89;81.78
67109;BME280;54027;50.786;7.058;2023-04-08T08:40:14;101913.03;;;11.03;82.06
67109;BME280;54027;50.786;7.058;2023-04-08T08:42:40;101907.16;;;11.21;80.61
67109;BME280;54027;50.786;7.058;2023-04-08T08:45:06;101911.50;;;11.29;79.61
67109;BME280;54027;50.786;7.058;2023-04-08T08:47:32;101907.97;;;11.20;78.91
67109;BME280;54027;50.786;7.058;2023-04-08T08:49:57;101903.78;;;11.35;79.03
67109;BME280;54027;50.786;7.058;2023-04-08T08:52:23;101895.25;;;11.49;77.42
67109;BME280;54027;50.786;7.058;2023-04-08T08:54:56;101907.38;;;11.48;77.71
67109;BME280;54027;50.786;7.058;2023-04-08T08:57:22;101906.59;;;11.66;77.61
67109;BME280;54027;50.786;7.058;2023-04-08T08:59:47;101899.69;;;11.69;76.23
67109;BME280;54027;50.786;7.058;2023-04-08T09:02:26;101906.59;;;11.66;76.45
67109;BME280;54027;50.786;7.058;2023-04-08T09:05:03;101910.91;;;11.65;76.58
67109;BME280;54027;50.786;7.058;2023-04-08T09:07:30;101904.03;;;11.69;76.03
67109;BME280;54027;50.786;7.058;2023-04-08T09:09:57;101903.13;;;11.64;75.01
67109;BME280;54027;50.786;7.058;2023-04-08T09:12:24;101913.53;;;11.71;75.56
67109;BME280;54027;50.786;7.058;2023-04-08T09:14:50;101912.75;;;11.90;75.95
67109;BME280;54027;50.786;7.058;2023-04-08T09:17:30;101897.16;;;11.80;73.89
67109;BME280;54027;50.786;7.058;2023-04-08T09:20:09;101881.69;;;12.03;73.40
67109;BME280;54027;50.786;7.058;2023-04-08T09:22:57;101893.91;;;12.28;73.80
67109;BME280;54027;50.786;7.058;2023-04-08T09:25:27;101878.38;;;12.37;72.50
67109;BME280;54027;50.786;7.058;2023-04-08T09:27:53;101890.47;;;12.49;73.26
67109;BME280;54027;50.786;7.058;2023-04-08T09:30:24;101870.56;;;12.35;71.71
67109;BME280;54027;50.786;7.058;2023-04-08T09:32:54;101896.53;;;12.46;72.79
67109;BME280;54027;50.786;7.058;2023-04-08T09:35:20;101907.72;;;12.30;73.00
67109;BME280;54027;50.786;7.058;2023-04-08T09:37:47;101922.34;;;12.11;73.29
67109;BME280;54027;50.786;7.058;2023-04-08T09:40:13;101921.47;;;12.05;73.93
67109;BME280;54027;50.786;7.058;2023-04-08T09:42:43;101930.09;;;12.07;74.25
67109;BME280;54027;50.786;7.058;2023-04-08T09:45:09;101942.19;;;12.05;74.98
67109;BME280;54027;50.786;7.058;2023-04-08T09:48:12;101933.50;;;11.97;74.23
67109;BME280;54027;50.786;7.058;2023-04-08T09:50:42;101937.03;;;12.11;75.82
67109;BME280;54027;50.786;7.058;2023-04-08T09:53:19;101932.78;;;12.31;75.71
67109;BME280;54027;50.786;7.058;2023-04-08T09:55:52;101913.81;;;12.42;73.56
67109;BME280;54027;50.786;7.058;2023-04-08T09:58:21;101905.19;;;12.60;73.06
67109;BME280;54027;50.786;7.058;2023-04-08T10:00:53;101918.97;;;12.39;73.70
67109;BME280;54027;50.786;7.058;2023-04-08T10:05:57;101925.91;;;12.48;74.45
67109;BME280;54027;50.786;7.058;2023-04-08T10:08:25;101931.03;;;12.30;74.51
67109;BME280;54027;50.786;7.058;2023-04-08T10:10:53;101914.63;;;12.35;73.45
67109;BME280;54027;50.786;7.058;2023-04-08T10:13:19;101925.00;;;12.35;73.88
67109;BME280;54027;50.786;7.058;2023-04-08T10:15:44;101925.84;;;12.24;74.00
67109;BME280;54027;50.786;7.058;2023-04-08T10:23:04;101892.22;;;12.54;71.55
67109;BME280;54027;50.786;7.058;2023-04-08T10:25:38;101900.00;;;12.74;71.56
67109;BME280;54027;50.786;7.058;2023-04-08T10:33:09;101923.31;;;12.50;72.15
67109;BME280;54027;50.786;7.058;2023-04-08T10:35:35;101933.69;;;12.51;72.72
67109;BME280;54027;50.786;7.058;2023-04-08T10:38:02;101908.59;;;12.39;71.11
67109;BME280;54027;50.786;7.058;2023-04-08T10:40:28;101900.81;;;12.38;70.94
67109;BME280;54027;50.786;7.058;2023-04-08T10:43:00;101895.63;;;12.35;70.56
67109;BME280;54027;50.786;7.058;2023-04-08T10:45:25;101912.00;;;12.20;71.42
67109;BME280;54027;50.786;7.058;2023-04-08T10:47:51;101937.03;;;12.15;73.61
67109;BME280;54027;50.786;7.058;2023-04-08T10:50:19;101901.66;;;12.29;71.87
67109;BME280;54027;50.786;7.058;2023-04-08T10:52:49;101902.53;;;12.36;71.42
67109;BME280;54027;50.786;7.058;2023-04-08T10:55:15;101910.34;;;12.40;71.85
67109;BME280;54027;50.786;7.058;2023-04-08T10:57:42;101875.81;;;12.61;70.15
67109;BME280;54027;50.786;7.058;2023-04-08T11:00:11;101880.97;;;12.67;70.14
67109;BME280;54027;50.786;7.058;2023-04-08T11:02:39;101851.59;;;12.91;68.35
67109;BME280;54027;50.786;7.058;2023-04-08T11:05:05;101828.25;;;12.73;66.71
67109;BME280;54027;50.786;7.058;2023-04-08T11:07:30;101846.41;;;12.89;67.18
67109;BME280;54027;50.786;7.058;2023-04-08T11:09:56;101835.19;;;13.06;66.44
67109;BME280;54027;50.786;7.058;2023-04-08T11:12:21;101849.00;;;12.92;67.04
67109;BME280;54027;50.786;7.058;2023-04-08T11:14:47;101891.38;;;12.96;68.85
67109;BME280;54027;50.786;7.058;2023-04-08T11:17:17;101810.06;;;13.11;65.19
67109;BME280;54027;50.786;7.058;2023-04-08T11:19:43;101804.88;;;13.06;64.44
67109;BME280;54027;50.786;7.058;2023-04-08T11:22:08;101817.81;;;13.18;65.11
67109;BME280;54027;50.786;7.058;2023-04-08T11:24:36;101794.47;;;13.12;63.67
67109;BME280;54027;50.786;7.058;2023-04-08T11:27:03;101797.09;;;13.05;63.74
67109;BME280;54027;50.786;7.058;2023-04-08T11:29:31;101790.16;;;13.11;63.77
67109;BME280;54027;50.786;7.058;2023-04-08T11:31:57;101768.47;;;13.24;62.56
67109;BME280;54027;50.786;7.058;2023-04-08T11:34:24;101776.25;;;13.35;62.87
67109;BME280;54027;50.786;7.058;2023-04-08T11:36:50;101763.19;;;13.51;61.88
67109;BME280;54027;50.786;7.058;2023-04-08T11:39:15;101723.31;;;13.62;61.31
67109;BME280;54027;50.786;7.058;2023-04-08T11:41:41;101760.66;;;13.36;62.36
67109;BME280;54027;50.786;7.058;2023-04-08T11:44:06;101812.59;;;13.35;64.55
67109;BME280;54027;50.786;7.058;2023-04-08T11:46:33;101778.88;;;13.21;63.34
67109;BME280;54027;50.786;7.058;2023-04-08T11:49:00;101765.97;;;12.88;62.63
67109;BME280;54027;50.786;7.058;2023-04-08T11:51:26;101774.59;;;12.82;63.65
67109;BME280;54027;50.786;7.058;2023-04-08T11:53:52;101783.28;;;12.75;63.22
67109;BME280;54027;50.786;7.058;2023-04-08T11:56:19;101803.16;;;12.73;64.52
67109;BME280;54027;50.786;7.058;2023-04-08T11:58:45;101810.09;;;12.58;64.70
67109;BME280;54027;50.786;7.058;2023-04-08T12:01:11;101813.53;;;12.38;65.19
67109;BME280;54027;50.786;7.058;2023-04-08T12:03:36;101847.22;;;12.29;66.39
67109;BME280;54027;50.786;7.058;2023-04-08T12:06:02;101834.25;;;12.26;66.05
67109;BME280;54027;50.786;7.058;2023-04-08T12:08:28;101832.53;;;12.25;66.22
67109;BME280;54027;50.786;7.058;2023-04-08T12:10:54;101829.06;;;12.32;66.04
67109;BME280;54027;50.786;7.058;2023-04-08T12:13:19;101816.97;;;12.33;64.83
67109;BME280;54027;50.786;7.058;2023-04-08T12:15:45;101787.63;;;12.37;63.77
67109;BME280;54027;50.786;7.058;2023-04-08T12:18:10;101811.81;;;12.40;64.97
67109;BME280;54027;50.786;7.058;2023-04-08T12:20:36;101816.16;;;12.46;65.42
67109;BME280;54027;50.786;7.058;2023-04-08T12:23:01;101792.78;;;12.48;64.18
67109;BME280;54027;50.786;7.058;2023-04-08T12:25:27;101832.56;;;12.51;65.36
67109;BME280;54027;50.786;7.058;2023-04-08T12:27:53;101815.25;;;12.59;64.89
67109;BME280;54027;50.786;7.058;2023-04-08T12:30:18;101773.78;;;12.67;63.08
67109;BME280;54027;50.786;7.058;2023-04-08T12:32:44;101753.03;;;12.64;62.28
67109;BME280;54027;50.786;7.058;2023-04-08T12:35:11;101773.78;;;12.62;62.77
67109;BME280;54027;50.786;7.058;2023-04-08T12:37:37;101774.63;;;12.54;62.90
67109;BME280;54027;50.786;7.058;2023-04-08T12:40:02;101813.53;;;12.44;64.25
67109;BME280;54027;50.786;7.058;2023-04-08T12:42:28;101829.97;;;12.39;65.00
67109;BME280;54027;50.786;7.058;2023-04-08T12:44:53;101832.56;;;12.40;65.29
67109;BME280;54027;50.786;7.058;2023-04-08T12:47:18;101801.44;;;12.34;63.32
67109;BME280;54027;50.786;7.058;2023-04-08T12:49:44;101767.72;;;12.45;62.47
67109;BME280;54027;50.786;7.058;2023-04-08T12:52:09;101724.50;;;12.58;60.91
67109;BME280;54027;50.786;7.058;2023-04-08T12:54:35;101735.75;;;12.61;61.01
67109;BME280;54027;50.786;7.058;2023-04-08T12:57:00;101727.97;;;12.51;60.58
67109;BME280;54027;50.786;7.058;2023-04-08T12:59:26;101749.56;;;12.59;62.02
67109;BME280;54027;50.786;7.058;2023-04-08T13:01:52;101751.28;;;12.81;61.85
67109;BME280;54027;50.786;7.058;2023-04-08T13:04:17;101716.66;;;12.92;60.03
67109;BME280;54027;50.786;7.058;2023-04-08T13:06:44;101780.69;;;13.03;62.80
67109;BME280;54027;50.786;7.058;2023-04-08T13:09:09;101734.78;;;13.09;61.05